createdAt,value
2023-04-25T00:02:01.948Z,6.60
2023-04-25T00:04:35.039Z,6.40
2023-04-25T00:07:07.308Z,6.20
2023-04-25T00:09:37.685Z,6.10
2023-04-25T00:12:08.352Z,6.10
2023-04-25T00:14:38.851Z,6.10
2023-04-25T00:17:09.436Z,6.10
2023-04-25T00:19:42.696Z,6.10
2023-04-25T00:22:15.047Z,6.10
2023-04-25T00:24:45.559Z,6.20
2023-04-25T00:27:15.898Z,6.20
2023-04-25T00:29:47.932Z,6.20
2023-04-25T00:32:18.570Z,6.10
2023-04-25T00:34:49.128Z,6.00
2023-04-25T00:37:21.617Z,5.80
2023-04-25T00:39:53.398Z,5.60
2023-04-25T00:42:24.651Z,5.40
2023-04-25T00:44:56.023Z,5.10
2023-04-25T00:47:27.437Z,4.90
2023-04-25T00:49:58.071Z,4.80
2023-04-25T00:52:30.211Z,4.80
2023-04-25T00:55:00.593Z,4.80
2023-04-25T00:57:31.716Z,4.80
2023-04-25T01:00:02.533Z,4.70
2023-04-25T01:02:33.696Z,4.90
2023-04-25T01:05:07.510Z,5.10
2023-04-25T01:07:39.788Z,5.30
2023-04-25T01:10:11.352Z,5.50
2023-04-25T01:12:41.693Z,5.60
2023-04-25T01:15:12.505Z,5.70
2023-04-25T01:17:44.606Z,5.80
2023-04-25T01:20:17.742Z,5.80
2023-04-25T01:22:50.330Z,5.80
2023-04-25T01:25:21.030Z,5.80
2023-04-25T01:27:51.817Z,5.80
2023-04-25T01:30:22.509Z,5.80
2023-04-25T01:32:53.849Z,5.80
2023-04-25T01:35:25.525Z,5.70
2023-04-25T01:37:57.813Z,5.60
2023-04-25T01:40:28.545Z,5.50
2023-04-25T01:42:58.905Z,5.40
2023-04-25T01:45:29.542Z,5.30
2023-04-25T01:48:01.090Z,5.20
2023-04-25T01:50:31.917Z,5.20
2023-04-25T01:53:04.891Z,5.10
2023-04-25T01:55:35.098Z,5.00
2023-04-25T01:58:10.770Z,5.00
2023-04-25T02:00:42.436Z,5.00
2023-04-25T02:03:13.183Z,4.90
2023-04-25T02:05:44.425Z,4.90
2023-04-25T02:08:16.496Z,4.80
2023-04-25T02:10:46.982Z,4.80
2023-04-25T02:13:17.655Z,4.80
2023-04-25T02:15:49.319Z,4.80
2023-04-25T02:18:19.680Z,4.70
2023-04-25T02:20:50.289Z,4.60
2023-04-25T02:23:22.266Z,4.50
2023-04-25T02:25:52.948Z,4.40
2023-04-25T02:28:23.283Z,4.30
2023-04-25T02:30:53.580Z,4.30
2023-04-25T02:33:24.396Z,4.30
2023-04-25T02:35:54.794Z,4.40
2023-04-25T02:38:26.646Z,4.60
2023-04-25T02:40:57.402Z,4.70
2023-04-25T02:43:27.659Z,4.90
2023-04-25T02:45:57.976Z,5.10
2023-04-25T02:48:28.247Z,5.10
2023-04-25T02:50:58.468Z,5.20
2023-04-25T02:53:30.290Z,5.30
2023-04-25T02:56:00.932Z,5.30
2023-04-25T02:58:31.295Z,5.30
2023-04-25T03:01:02.451Z,5.30
2023-04-25T03:03:32.985Z,5.30
2023-04-25T03:06:04.036Z,5.30
2023-04-25T03:08:36.262Z,5.30
2023-04-25T03:11:06.672Z,5.30
2023-04-25T03:13:36.898Z,5.30
2023-04-25T03:16:08.051Z,5.20
2023-04-25T03:18:38.423Z,5.30
2023-04-25T03:21:08.704Z,5.30
2023-04-25T03:23:40.851Z,5.30
2023-04-25T03:26:11.448Z,5.30
2023-04-25T03:28:41.754Z,5.40
2023-04-25T03:31:12.129Z,5.30
2023-04-25T03:33:42.431Z,5.30
2023-04-25T03:36:13.303Z,5.30
2023-04-25T03:38:45.248Z,5.40
2023-04-25T03:41:15.669Z,5.50
2023-04-25T03:43:45.895Z,5.50
2023-04-25T03:46:16.217Z,5.50
2023-04-25T03:48:46.699Z,5.50
2023-04-25T03:51:17.785Z,5.40
2023-04-25T03:53:50.031Z,5.40
2023-04-25T03:56:20.371Z,5.30
2023-04-25T03:58:50.826Z,5.30
2023-04-25T04:01:21.289Z,5.30
2023-04-25T04:03:52.055Z,5.30
2023-04-25T04:06:22.647Z,5.30
2023-04-25T04:08:54.607Z,5.30
2023-04-25T04:11:24.859Z,5.20
2023-04-25T04:13:55.730Z,5.20
2023-04-25T04:16:26.563Z,5.30
2023-04-25T04:18:56.862Z,5.30
2023-04-25T04:21:29.200Z,5.40
2023-04-25T04:24:01.598Z,5.40
2023-04-25T04:26:33.593Z,5.50
2023-04-25T04:29:03.807Z,5.50
2023-04-25T04:31:34.508Z,5.50
2023-04-25T04:34:05.302Z,5.40
2023-04-25T04:36:35.655Z,5.40
2023-04-25T04:39:10.758Z,5.40
2023-04-25T04:41:41.799Z,5.30
2023-04-25T04:44:12.405Z,5.30
2023-04-25T04:46:43.708Z,5.20
2023-04-25T04:49:15.342Z,5.20
2023-04-25T04:51:46.259Z,5.20
2023-04-25T04:54:18.324Z,5.30
2023-04-25T04:56:48.613Z,5.30
2023-04-25T04:59:18.948Z,5.40
2023-04-25T05:01:49.237Z,5.40
2023-04-25T05:04:19.586Z,5.40
2023-04-25T05:06:50.102Z,5.40
2023-04-25T05:09:22.363Z,5.50
2023-04-25T05:11:52.602Z,5.50
2023-04-25T05:14:23.385Z,5.50
2023-04-25T05:16:53.975Z,5.40
2023-04-25T05:19:25.127Z,5.40
2023-04-25T05:21:55.618Z,5.40
2023-04-25T05:24:27.473Z,5.30
2023-04-25T05:26:57.705Z,5.30
2023-04-25T05:29:28.476Z,5.30
2023-04-25T05:31:58.687Z,5.30
2023-04-25T05:34:28.938Z,5.30
2023-04-25T05:36:59.400Z,5.40
2023-04-25T05:39:31.964Z,5.40
2023-04-25T05:42:03.123Z,5.40
2023-04-25T05:44:34.418Z,5.30
2023-04-25T05:47:06.194Z,5.30
2023-04-25T05:49:37.180Z,5.30
2023-04-25T05:52:07.700Z,5.30
2023-04-25T05:54:39.415Z,5.20
2023-04-25T05:57:09.808Z,5.20
2023-04-25T05:59:40.244Z,5.20
2023-04-25T06:02:10.716Z,5.20
2023-04-25T06:04:41.413Z,5.20
2023-04-25T06:07:12.366Z,5.20
2023-04-25T06:09:44.398Z,5.20
2023-04-25T06:12:15.227Z,5.20
2023-04-25T06:14:45.609Z,5.20
2023-04-25T06:17:15.986Z,5.30
2023-04-25T06:19:46.466Z,5.30
2023-04-25T06:22:17.071Z,5.30
2023-04-25T06:24:48.993Z,5.30
2023-04-25T06:27:19.291Z,5.30
2023-04-25T06:29:49.638Z,5.30
2023-04-25T06:32:20.343Z,5.30
2023-04-25T06:34:50.476Z,5.30
2023-04-25T06:37:20.789Z,5.30
2023-04-25T06:39:53.308Z,5.30
2023-04-25T06:42:23.901Z,5.30
2023-04-25T06:44:54.238Z,5.20
2023-04-25T06:47:24.942Z,5.20
2023-04-25T06:49:55.401Z,5.10
2023-04-25T06:52:25.706Z,5.10
2023-04-25T06:54:57.678Z,5.00
2023-04-25T06:57:28.089Z,5.00
2023-04-25T06:59:59.730Z,4.90
2023-04-25T07:02:31.954Z,4.90
2023-04-25T07:05:02.109Z,4.80
2023-04-25T07:07:32.922Z,4.70
2023-04-25T07:10:04.714Z,4.70
2023-04-25T07:12:34.967Z,4.60
2023-04-25T07:15:07.579Z,4.50
2023-04-25T07:17:37.791Z,4.40
2023-04-25T07:20:10.807Z,4.40
2023-04-25T07:22:41.243Z,4.20
2023-04-25T07:25:13.780Z,4.10
2023-04-25T07:27:44.970Z,4.00
2023-04-25T07:30:15.880Z,3.90
2023-04-25T07:32:47.007Z,3.70
2023-04-25T07:35:17.288Z,3.60
2023-04-25T07:37:48.105Z,3.40
2023-04-25T07:40:20.133Z,3.10
2023-04-25T07:42:50.561Z,2.90
2023-04-25T07:45:20.850Z,2.80
2023-04-25T07:47:51.323Z,2.60
2023-04-25T07:50:21.810Z,2.50
2023-04-25T07:52:52.225Z,2.50
2023-04-25T07:55:24.123Z,2.60
2023-04-25T07:57:54.371Z,2.60
2023-04-25T08:00:24.888Z,2.60
2023-04-25T08:02:55.318Z,2.60
2023-04-25T08:05:25.948Z,2.50
2023-04-25T08:07:56.480Z,2.40
2023-04-25T08:10:28.353Z,2.30
2023-04-25T08:12:58.561Z,2.20
2023-04-25T08:15:28.913Z,2.10
2023-04-25T08:17:59.501Z,2.00
2023-04-25T08:20:29.830Z,1.80
2023-04-25T08:23:00.271Z,1.80
2023-04-25T08:25:32.728Z,1.80
2023-04-25T08:28:04.649Z,1.80
2023-04-25T08:30:34.934Z,1.80
2023-04-25T08:33:05.474Z,1.80
2023-04-25T08:35:36.681Z,1.80
2023-04-25T08:38:08.074Z,1.80
2023-04-25T08:40:42.974Z,1.70
2023-04-25T08:43:16.676Z,1.60
2023-04-25T08:45:47.452Z,1.60
2023-04-25T08:48:20.405Z,1.50
2023-04-25T08:50:54.608Z,1.50
2023-04-25T08:53:30.808Z,1.50
2023-04-25T08:56:04.809Z,1.40
2023-04-25T08:58:36.316Z,1.40
2023-04-25T09:01:08.157Z,1.30
2023-04-25T09:03:39.457Z,1.20
2023-04-25T09:06:11.078Z,1.10
2023-04-25T09:08:42.375Z,1.20
2023-04-25T09:11:16.411Z,1.10
2023-04-25T09:13:46.941Z,1.00
2023-04-25T09:16:19.076Z,1.00
2023-04-25T09:18:51.409Z,0.90
2023-04-25T09:21:26.292Z,0.90
2023-04-25T09:23:56.724Z,0.90
2023-04-25T09:26:30.036Z,0.90
2023-04-25T09:29:10.012Z,1.00
2023-04-25T09:31:40.552Z,1.00
2023-04-25T09:34:13.639Z,1.20
2023-04-25T09:36:44.106Z,1.30
2023-04-25T09:39:19.226Z,1.40
2023-04-25T09:41:51.854Z,1.50
2023-04-25T09:44:28.720Z,1.50
2023-04-25T09:47:01.754Z,1.60
2023-04-25T09:49:32.056Z,1.70
2023-04-25T09:52:02.808Z,1.80
2023-04-25T09:54:33.471Z,2.00
2023-04-25T09:57:12.820Z,2.20
2023-04-25T09:59:47.354Z,2.30
2023-04-25T10:02:20.671Z,2.30
2023-04-25T10:04:54.417Z,2.40
2023-04-25T10:07:27.500Z,2.40
2023-04-25T10:10:04.336Z,2.40
2023-04-25T10:12:37.168Z,2.40
2023-04-25T10:15:09.752Z,2.40
2023-04-25T10:17:40.390Z,2.50
2023-04-25T10:20:12.465Z,2.50
2023-04-25T10:22:45.888Z,2.60
2023-04-25T10:25:17.674Z,2.60
2023-04-25T10:27:49.515Z,2.70
2023-04-25T10:30:19.834Z,2.70
2023-04-25T10:32:52.442Z,2.80
2023-04-25T10:35:29.114Z,2.80
2023-04-25T10:38:08.065Z,2.90
2023-04-25T10:40:39.302Z,3.00
2023-04-25T10:43:42.438Z,3.00
2023-04-25T10:46:21.003Z,3.00
2023-04-25T10:48:52.984Z,3.10
2023-04-25T10:51:25.947Z,3.10
2023-04-25T10:54:04.521Z,3.20
2023-04-25T10:56:35.770Z,3.20
2023-04-25T10:59:23.376Z,3.20
2023-04-25T11:01:56.503Z,3.30
2023-04-25T11:04:28.238Z,3.40
2023-04-25T11:07:07.992Z,3.40
2023-04-25T11:09:39.467Z,3.40
2023-04-25T11:12:13.502Z,3.50
2023-04-25T11:14:45.477Z,3.50
2023-04-25T11:17:15.902Z,3.60
2023-04-25T11:19:46.211Z,3.60
2023-04-25T11:22:16.635Z,3.60
2023-04-25T11:24:47.303Z,3.60
2023-04-25T11:27:17.587Z,3.60
2023-04-25T11:29:50.448Z,3.60
2023-04-25T11:32:21.745Z,3.60
2023-04-25T11:34:52.119Z,3.60
2023-04-25T11:37:22.902Z,3.60
2023-04-25T11:39:53.725Z,3.60
2023-04-25T11:42:24.186Z,3.60
2023-04-25T11:44:56.393Z,3.60
2023-04-25T11:47:34.179Z,3.60
2023-04-25T11:50:04.803Z,3.60
2023-04-25T11:52:42.851Z,3.60
2023-04-25T11:55:16.346Z,3.70
2023-04-25T11:57:49.249Z,3.80
2023-04-25T12:00:22.578Z,3.90
2023-04-25T12:02:57.320Z,4.00
2023-04-25T12:05:33.857Z,4.10
2023-04-25T12:08:15.157Z,4.40
2023-04-25T12:10:47.225Z,4.60
2023-04-25T12:13:25.100Z,4.70
2023-04-25T12:15:59.122Z,4.80
2023-04-25T12:18:29.999Z,4.80
2023-04-25T12:21:01.744Z,4.80
2023-04-25T12:23:32.501Z,4.90
2023-04-25T12:26:04.485Z,5.00
2023-04-25T12:28:36.624Z,5.10
2023-04-25T12:31:10.343Z,5.20
2023-04-25T12:33:41.439Z,5.30
2023-04-25T12:36:13.181Z,5.50
2023-04-25T12:38:44.714Z,5.60
2023-04-25T12:41:15.426Z,5.80
2023-04-25T12:43:45.936Z,6.00
2023-04-25T12:46:17.860Z,6.30
2023-04-25T12:48:48.379Z,6.50
2023-04-25T12:51:19.399Z,6.70
2023-04-25T12:53:49.718Z,6.90
2023-04-25T12:56:21.475Z,7.10
2023-04-25T12:58:54.241Z,7.30
2023-04-25T13:01:26.389Z,7.50
2023-04-25T13:03:57.653Z,7.60
2023-04-25T13:06:28.118Z,7.70
2023-04-25T13:08:58.401Z,7.90
2023-04-25T13:13:59.930Z,8.00
2023-04-25T13:16:32.267Z,8.00
2023-04-25T13:19:03.061Z,8.00
2023-04-25T13:21:35.284Z,7.90
2023-04-25T13:24:05.621Z,7.70
2023-04-25T13:26:36.063Z,7.60
2023-04-25T13:29:07.172Z,7.40
2023-04-25T13:31:39.005Z,7.20
2023-04-25T13:34:09.267Z,7.20
2023-04-25T13:36:39.724Z,7.20
2023-04-25T13:39:10.061Z,7.10
2023-04-25T13:41:40.513Z,7.00
2023-04-25T13:44:10.914Z,7.00
2023-04-25T13:46:46.844Z,7.20
2023-04-25T13:49:17.952Z,7.20
2023-04-25T13:51:48.739Z,7.30
2023-04-25T13:54:19.116Z,7.40
2023-04-25T13:56:50.388Z,7.50
2023-04-25T13:59:20.798Z,7.70
2023-04-25T14:01:52.782Z,7.90
2023-04-25T14:04:23.320Z,8.00
2023-04-25T14:06:53.964Z,8.00
2023-04-25T14:09:27.279Z,8.00
2023-04-25T14:11:58.558Z,8.10
2023-04-25T14:14:28.780Z,8.20
2023-04-25T14:17:00.667Z,8.10
2023-04-25T14:19:31.065Z,8.10
2023-04-25T14:22:01.516Z,8.10
2023-04-25T14:24:31.733Z,8.10
2023-04-25T14:27:02.580Z,8.20
2023-04-25T14:29:33.000Z,8.20
2023-04-25T14:32:05.445Z,8.40
2023-04-25T14:34:36.343Z,8.50
2023-04-25T14:37:06.572Z,8.90
2023-04-25T14:39:38.382Z,9.50
2023-04-25T14:42:08.700Z,9.90
2023-04-25T14:44:42.568Z,10.20
2023-04-25T14:47:15.256Z,10.50
2023-04-25T14:49:45.928Z,10.60
2023-04-25T14:52:16.632Z,10.80
2023-04-25T14:54:46.848Z,10.90
2023-04-25T14:57:17.402Z,11.10
2023-04-25T14:59:47.721Z,11.10
2023-04-25T15:02:19.626Z,11.00
2023-04-25T15:04:50.230Z,10.90
2023-04-25T15:07:20.578Z,10.60
2023-04-25T15:09:51.811Z,10.40
2023-04-25T15:12:22.123Z,10.40
2023-04-25T15:14:52.743Z,10.50
2023-04-25T15:17:24.653Z,10.40
2023-04-25T15:19:56.282Z,10.30
2023-04-25T15:22:26.479Z,10.60
2023-04-25T15:24:57.932Z,10.80
2023-04-25T15:27:29.378Z,10.80
2023-04-25T15:29:59.760Z,10.80
2023-04-25T15:32:31.787Z,10.70
2023-04-25T15:35:02.180Z,10.60
2023-04-25T15:37:32.429Z,10.80
2023-04-25T15:40:10.385Z,11.10
2023-04-25T15:42:40.914Z,11.00
2023-04-25T15:45:12.821Z,10.80
2023-04-25T15:47:44.627Z,10.40
2023-04-25T15:50:15.889Z,10.30
2023-04-25T15:52:46.319Z,10.30
2023-04-25T15:55:17.430Z,10.50
2023-04-25T15:57:48.676Z,10.90
2023-04-25T16:00:20.308Z,11.10
2023-04-25T16:02:54.033Z,11.20
2023-04-25T16:05:25.019Z,11.60
2023-04-25T16:07:56.272Z,11.60
2023-04-25T16:10:26.609Z,11.70
2023-04-25T16:12:57.060Z,11.50
2023-04-25T16:15:27.930Z,11.30
2023-04-25T16:18:00.691Z,10.80
2023-04-25T16:20:31.463Z,10.40
2023-04-25T16:23:01.960Z,10.00
2023-04-25T16:25:32.352Z,9.80
2023-04-25T16:28:02.721Z,9.40
2023-04-25T16:30:32.935Z,9.20
2023-04-25T16:33:04.935Z,8.90
2023-04-25T16:35:35.293Z,8.60
2023-04-25T16:38:05.596Z,8.20
2023-04-25T16:40:36.211Z,7.80
2023-04-25T16:43:06.334Z,7.60
2023-04-25T16:45:37.131Z,7.50
2023-04-25T16:48:09.560Z,7.50
2023-04-25T16:50:39.830Z,7.60
2023-04-25T16:53:10.044Z,7.90
2023-04-25T16:55:40.368Z,8.40
2023-04-25T16:58:12.603Z,8.90
2023-04-25T17:00:43.912Z,9.50
2023-04-25T17:03:16.428Z,10.80
2023-04-25T17:05:47.530Z,11.90
2023-04-25T17:08:17.641Z,12.40
2023-04-25T17:10:47.887Z,12.10
2023-04-25T17:13:18.850Z,11.70
2023-04-25T17:15:49.254Z,11.20
2023-04-25T17:18:22.633Z,11.20
2023-04-25T17:20:54.384Z,11.30
2023-04-25T17:23:24.745Z,11.20
2023-04-25T17:25:55.551Z,11.20
2023-04-25T17:28:25.877Z,11.40
2023-04-25T17:30:56.165Z,11.40
2023-04-25T17:33:28.113Z,11.40
2023-04-25T17:35:58.812Z,11.00
2023-04-25T17:38:29.367Z,10.70
2023-04-25T17:41:00.281Z,10.40
2023-04-25T17:43:31.005Z,10.30
2023-04-25T17:46:01.382Z,10.50
2023-04-25T17:48:33.385Z,10.90
2023-04-25T17:51:03.998Z,11.20
2023-04-25T17:53:34.265Z,11.60
2023-04-25T17:56:06.961Z,12.30
2023-04-25T17:58:43.298Z,12.50
2023-04-25T18:01:13.889Z,12.30
2023-04-25T18:03:46.319Z,11.90
2023-04-25T18:06:16.926Z,11.70
2023-04-25T18:08:47.362Z,11.50
2023-04-25T18:11:17.907Z,12.60
2023-04-25T18:13:48.110Z,13.20
2023-04-25T18:16:18.568Z,13.40
2023-04-25T18:18:53.948Z,13.10
2023-04-25T18:21:25.384Z,12.90
2023-04-25T18:23:55.570Z,12.70
2023-04-25T18:26:25.843Z,12.50
2023-04-25T18:28:56.473Z,12.10
2023-04-25T18:31:27.200Z,11.70
2023-04-25T18:33:59.219Z,11.50
2023-04-25T18:36:29.610Z,11.80
2023-04-25T18:41:53.700Z,12.40
2023-04-25T18:44:24.289Z,12.50
2023-04-25T18:46:54.743Z,12.90
2023-04-25T18:49:27.131Z,12.80
2023-04-25T18:51:58.206Z,12.60
2023-04-25T18:54:28.563Z,12.10
2023-04-25T18:56:59.566Z,11.80
2023-04-25T18:59:29.889Z,11.60
2023-04-25T19:02:01.265Z,11.40
2023-04-25T19:04:33.228Z,11.40
2023-04-25T19:07:04.396Z,11.40
2023-04-25T19:09:34.759Z,11.80
2023-04-25T19:12:05.794Z,12.90
2023-04-25T19:14:36.793Z,13.70
2023-04-25T19:17:07.116Z,13.70
2023-04-25T19:19:39.055Z,14.20
2023-04-25T19:22:09.636Z,14.60
2023-04-25T19:24:40.432Z,13.90
2023-04-25T19:27:10.811Z,13.70
2023-04-25T19:29:44.968Z,14.20
2023-04-25T19:32:16.286Z,14.10
2023-04-25T19:34:48.984Z,14.30
2023-04-25T19:37:19.706Z,14.20
2023-04-25T19:39:50.570Z,13.30
2023-04-25T19:42:20.986Z,12.50
2023-04-25T19:44:51.429Z,12.10
2023-04-25T19:47:22.073Z,12.00
2023-04-25T19:49:53.930Z,11.80
2023-04-25T19:52:24.455Z,11.80
2023-04-25T19:54:58.778Z,11.80
2023-04-25T19:57:33.746Z,11.80
2023-04-25T20:00:04.853Z,11.80
2023-04-25T20:02:35.420Z,11.90
2023-04-25T20:05:09.160Z,11.80
2023-04-25T20:07:39.839Z,11.80
2023-04-25T20:10:13.244Z,11.80
2023-04-25T20:12:43.686Z,12.50
2023-04-25T20:15:14.787Z,13.40
2023-04-25T20:17:45.124Z,13.50
2023-04-25T20:20:18.055Z,13.20
2023-04-25T20:22:48.538Z,13.10
2023-04-25T20:25:19.964Z,12.80
2023-04-25T20:27:50.599Z,12.90
2023-04-25T20:30:21.047Z,13.20
2023-04-25T20:32:51.623Z,13.90
2023-04-25T20:35:24.026Z,14.10
2023-04-25T20:37:54.307Z,14.80
2023-04-25T20:40:25.242Z,15.70
2023-04-25T20:42:57.332Z,15.90
2023-04-25T20:45:30.724Z,15.50
2023-04-25T20:48:01.252Z,15.40
2023-04-25T20:50:33.609Z,15.10
2023-04-25T20:53:04.593Z,15.10
2023-04-25T20:55:34.899Z,15.30
2023-04-25T20:58:05.474Z,15.30
2023-04-25T21:00:36.877Z,14.90
2023-04-25T21:03:07.955Z,14.80
2023-04-25T21:05:40.159Z,14.90
2023-04-25T21:08:10.823Z,15.20
2023-04-25T21:10:41.058Z,15.60
2023-04-25T21:13:12.964Z,15.90
2023-04-25T21:15:43.523Z,15.70
2023-04-25T21:18:14.417Z,15.50
2023-04-25T21:20:47.016Z,15.60
2023-04-25T21:23:17.599Z,15.20
2023-04-25T21:25:49.455Z,14.90
2023-04-25T21:28:19.846Z,14.60
2023-04-25T21:30:50.081Z,13.80
2023-04-25T21:33:20.526Z,13.90
2023-04-25T21:35:52.357Z,13.20
2023-04-25T21:38:23.050Z,12.40
2023-04-25T21:40:53.783Z,11.90
2023-04-25T21:43:24.113Z,11.70
2023-04-25T21:46:20.903Z,11.80
2023-04-25T21:48:44.974Z,12.00
2023-04-25T21:51:17.537Z,11.80
2023-04-25T21:53:47.924Z,11.80
2023-04-25T21:56:18.452Z,11.60
2023-04-25T21:58:49.204Z,11.10
2023-04-25T22:01:20.011Z,11.10
2023-04-25T22:03:50.616Z,11.10
2023-04-25T22:06:22.600Z,11.10
2023-04-25T22:08:53.156Z,10.90
2023-04-25T22:11:25.176Z,10.70
2023-04-25T22:13:55.750Z,10.50
2023-04-25T22:16:26.067Z,10.40
2023-04-25T22:18:56.631Z,10.40
2023-04-25T22:21:28.933Z,10.40
2023-04-25T22:24:00.863Z,10.40
2023-04-25T22:26:31.070Z,10.70
2023-04-25T22:29:01.487Z,11.00
2023-04-25T22:31:31.962Z,11.00
2023-04-25T22:34:02.258Z,11.00
2023-04-25T22:36:34.545Z,11.00
2023-04-25T22:39:04.928Z,11.10
2023-04-25T22:41:35.472Z,11.00
2023-04-25T22:44:05.688Z,11.00
2023-04-25T22:46:36.655Z,10.80
2023-04-25T22:49:07.265Z,10.50
2023-04-25T22:51:39.503Z,10.40
2023-04-25T22:54:10.500Z,10.20
2023-04-25T22:56:40.755Z,10.10
2023-04-25T22:59:12.251Z,10.10
2023-04-25T23:01:42.724Z,10.00
2023-04-25T23:04:13.306Z,9.90
2023-04-25T23:06:45.985Z,9.80
2023-04-25T23:09:16.691Z,9.70
2023-04-25T23:11:46.906Z,9.60
2023-04-25T23:14:17.258Z,9.50
2023-04-25T23:16:48.146Z,9.40
2023-04-25T23:19:19.116Z,9.30
2023-04-25T23:21:50.953Z,9.20
2023-04-25T23:24:21.427Z,9.10
2023-04-25T23:26:51.845Z,9.10
2023-04-25T23:29:22.174Z,9.00
2023-04-25T23:31:52.376Z,8.90
2023-04-25T23:34:23.076Z,8.90
2023-04-25T23:36:54.831Z,8.80
2023-04-25T23:39:26.737Z,8.80
2023-04-25T23:41:57.239Z,8.80
2023-04-25T23:44:33.709Z,8.80
2023-04-25T23:47:04.082Z,8.70
2023-04-25T23:49:34.357Z,8.60
2023-04-25T23:52:06.434Z,8.60
2023-04-25T23:54:36.939Z,8.50
2023-04-25T23:57:07.388Z,8.40
2023-04-25T23:59:38.028Z,8.30
